Time;durP1;ratioP1;P1;durP2;ratioP2;P2;SDS_P1;SDS_P2;PMS_P1;PMS_P2;Temp;Humidity;BMP_temperature;BMP_pressure;BME280_temperature;BME280_humidity;BME280_pressure;Samples;Min_cycle;Max_cycle;Signal;HPM_P1;HPM_P2
2022/06/12 00:01:44;;;;;;;14.68;9.10;;;;;;;19.45;90.12;100181.06;5020944;28;20568;-76
2022/06/12 00:04:11;;;;;;;8.63;6.43;;;;;;;19.41;90.79;100167.03;5020589;28;20053;-76
2022/06/12 00:06:37;;;;;;;12.18;7.07;;;;;;;19.18;90.16;100126.25;5018737;28;20461;-76
2022/06/12 00:09:10;;;;;;;13.23;8.65;;;;;;;18.97;90.82;100119.13;4998785;28;20126;-76
2022/06/12 00:11:36;;;;;;;;;;;;;;;19.28;90.58;100144.50;5023550;28;20049;-76
2022/06/12 00:14:04;;;;;;;10.18;7.20;;;;;;;19.10;89.94;100130.13;5022815;28;19917;-76
2022/06/12 00:16:32;;;;;;;13.32;8.82;;;;;;;19.69;88.34;100187.22;5023643;28;20046;-76
2022/06/12 00:19:00;;;;;;;14.13;8.35;;;;;;;19.60;89.46;100201.75;5001471;28;20095;-77
2022/06/12 00:21:27;;;;;;;15.38;8.55;;;;;;;19.02;89.68;100122.47;5001966;28;20115;-77
2022/06/12 00:24:07;;;;;;;11.63;8.30;;;;;;;19.57;89.50;100205.41;5021700;28;20088;-79
2022/06/12 00:26:37;;;;;;;13.73;7.93;;;;;;;19.46;89.74;100196.97;4987099;28;20053;-81
2022/06/12 00:29:08;;;;;;;12.40;7.68;;;;;;;19.26;92.33;100191.59;5026436;28;20073;-80
2022/06/12 00:31:36;;;;;;;9.25;7.93;;;;;;;18.93;91.91;100131.66;5025695;28;20383;-79
2022/06/12 00:34:02;;;;;;;21.60;8.35;;;;;;;19.37;93.34;100190.22;5021054;28;20390;-77
2022/06/12 00:36:29;;;;;;;15.65;8.43;;;;;;;19.28;94.58;100171.09;5023184;28;20064;-80
2022/06/12 00:38:57;;;;;;;16.42;8.20;;;;;;;19.13;96.38;100173.44;5005686;28;20050;-77
2022/06/12 00:41:25;;;;;;;13.20;7.63;;;;;;;18.50;97.50;100114.69;5006468;28;20492;-77
2022/06/12 00:43:52;;;;;;;12.50;7.38;;;;;;;18.73;98.45;100124.44;5002357;28;21059;-77
2022/06/12 00:46:46;;;;;;;10.52;7.18;;;;;;;18.83;97.95;100113.50;5006288;28;20056;-79
2022/06/12 00:49:26;;;;;;;11.07;8.52;;;;;;;19.23;97.81;100165.09;5004853;28;20080;-77
2022/06/12 00:52:20;;;;;;;16.25;7.80;;;;;;;18.77;97.54;100099.47;5024831;28;20096;-77
2022/06/12 00:54:51;;;;;;;10.85;7.82;;;;;;;19.17;97.37;100161.78;5024320;28;20076;-78
2022/06/12 00:57:18;;;;;;;8.32;6.53;;;;;;;19.00;97.78;100158.03;5021142;28;20137;-78
2022/06/12 00:59:57;;;;;;;15.77;7.13;;;;;;;19.00;98.20;100153.56;5025829;28;21354;-78
2022/06/12 01:02:31;;;;;;;13.43;8.02;;;;;;;18.94;98.33;100157.34;5012652;28;20124;-77
2022/06/12 01:07:50;;;;;;;10.55;7.50;;;;;;;18.89;99.20;100163.75;5028182;28;20185;-77
2022/06/12 01:10:18;;;;;;;9.40;6.72;;;;;;;18.88;99.50;100165.53;5020241;28;20069;-77
2022/06/12 01:12:52;;;;;;;14.68;7.50;;;;;;;18.42;98.62;100089.31;5020017;28;20086;-77
2022/06/12 01:15:25;;;;;;;11.25;8.13;;;;;;;18.41;97.99;100080.47;5021956;28;20037;-77
2022/06/12 01:17:53;;;;;;;13.98;7.97;;;;;;;18.84;98.50;100149.78;5020745;28;20037;-80
2022/06/12 01:20:27;;;;;;;13.55;8.68;;;;;;;18.52;98.28;100096.91;5005141;28;20037;-77
2022/06/12 01:23:19;;;;;;;12.68;7.18;;;;;;;18.86;98.21;100164.72;5026793;28;20115;-76
2022/06/12 01:26:02;;;;;;;11.43;6.72;;;;;;;18.89;98.99;100166.41;4989966;28;20127;-77
2022/06/12 01:28:37;;;;;;;10.13;6.93;;;;;;;18.82;99.61;100159.59;5023368;28;20057;-78
2022/06/12 01:31:22;;;;;;;9.88;7.57;;;;;;;18.42;99.31;100098.16;5005457;28;20053;-79
2022/06/12 01:33:54;;;;;;;11.70;8.23;;;;;;;18.96;99.76;100163.47;5023541;28;20046;-78
2022/06/12 01:36:23;;;;;;;15.02;7.22;;;;;;;18.45;99.31;100098.06;5025674;28;20055;-79
2022/06/12 01:39:11;;;;;;;15.57;8.40;;;;;;;18.88;98.93;100143.41;5023739;28;20052;-79
2022/06/12 01:41:43;;;;;;;10.55;8.25;;;;;;;18.82;99.06;100157.78;5027038;28;20526;-78
2022/06/12 01:44:35;;;;;;;8.55;6.53;;;;;;;18.81;98.46;100147.25;5023427;28;20485;-78
2022/06/12 01:47:17;;;;;;;15.23;7.97;;;;;;;18.67;97.40;100124.66;5024868;28;20128;-77
2022/06/12 01:50:13;;;;;;;10.88;7.03;;;;;;;18.24;97.29;100094.41;5022022;28;20077;-79
2022/06/12 01:53:06;;;;;;;10.38;7.07;;;;;;;18.45;98.59;100103.38;5002646;28;20057;-77
2022/06/12 01:55:47;;;;;;;11.27;6.70;;;;;;;18.28;97.57;100108.41;5024829;28;20128;-76
2022/06/12 01:58:45;;;;;;;14.43;6.28;;;;;;;18.32;97.46;100099.41;5021211;28;20053;-78
2022/06/12 02:01:25;;;;;;;12.10;5.88;;;;;;;18.71;97.21;100166.16;5004796;28;20056;-79
2022/06/12 02:04:01;;;;;;;10.45;5.95;;;;;;;18.44;97.51;100141.47;5024504;28;20061;-77
2022/06/12 02:06:48;;;;;;;11.88;5.50;;;;;;;18.69;97.06;100165.34;5022230;28;20542;-79
2022/06/12 02:09:23;;;;;;;8.18;5.60;;;;;;;18.14;95.66;100096.53;5005137;28;20045;-77
2022/06/12 02:15:13;;;;;;;9.32;6.15;;;;;;;18.41;96.02;100141.59;4994777;28;20064;-78
2022/06/12 02:17:49;;;;;;;15.98;6.07;;;;;;;18.51;96.31;100158.06;5025243;28;20034;-77
2022/06/12 02:20:20;;;;;;;8.40;6.63;;;;;;;18.68;95.09;100174.25;4985424;28;20037;-76
2022/06/12 02:22:49;;;;;;;9.25;6.50;;;;;;;18.17;97.16;100103.53;5006076;28;20045;-77
2022/06/12 02:25:20;;;;;;;7.80;5.38;;;;;;;18.49;96.87;100155.44;5024934;28;20049;-76
2022/06/12 02:27:53;;;;;;;9.60;5.15;;;;;;;18.37;94.79;100160.34;5021225;28;20144;-76
2022/06/12 02:30:22;;;;;;;8.90;6.72;;;;;;;18.11;95.67;100093.09;5014262;28;20120;-80
2022/06/12 02:33:13;;;;;;;8.93;5.10;;;;;;;18.06;96.11;100092.41;5010773;28;20041;-77
2022/06/12 02:35:42;;;;;;;7.32;5.07;;;;;;;18.47;95.47;100161.75;5020577;28;20052;-78
2022/06/12 02:38:18;;;;;;;8.27;5.03;;;;;;;18.34;95.19;100150.72;5023014;28;20037;-77
2022/06/12 02:40:47;;;;;;;12.50;5.75;;;;;;;18.07;93.83;100094.13;5021100;28;20772;-77
2022/06/12 02:43:21;;;;;;;10.70;5.55;;;;;;;18.31;93.75;100138.41;5037497;28;20037;-77
2022/06/12 02:46:12;;;;;;;10.68;5.30;;;;;;;18.00;94.85;100090.81;5021679;28;20489;-76
2022/06/12 02:48:37;;;;;;;11.43;6.70;;;;;;;18.42;95.60;100172.53;5000455;28;20054;-76
2022/06/12 02:51:28;;;;;;;11.85;5.22;;;;;;;18.46;94.92;100162.69;5021843;28;20048;-75
2022/06/12 02:54:21;;;;;;;7.65;4.82;;;;;;;18.00;94.13;100108.53;5020899;28;20067;-79
2022/06/12 02:57:05;;;;;;;;;;;;;;;17.93;96.42;100092.84;5021851;28;20053;-79
2022/06/12 02:59:56;;;;;;;8.48;5.03;;;;;;;18.41;96.39;100165.50;5019839;28;19924;-77
2022/06/12 03:02:36;;;;;;;9.57;4.72;;;;;;;18.16;96.84;100120.34;5002127;28;20544;-79
2022/06/12 03:05:26;;;;;;;7.03;5.22;;;;;;;18.13;95.49;100105.41;5025054;28;20057;-77
2022/06/12 03:08:08;;;;;;;7.35;5.55;;;;;;;18.35;95.29;100169.25;5022738;28;20064;-78
2022/06/12 03:10:39;;;;;;;11.70;4.45;;;;;;;18.17;94.79;100122.09;5025392;28;20053;-76
2022/06/12 03:13:08;;;;;;;12.73;6.57;;;;;;;18.01;94.13;100089.91;5025351;28;20055;-78
2022/06/12 03:15:45;;;;;;;7.55;4.75;;;;;;;18.50;94.78;100177.59;5022268;28;20048;-80
2022/06/12 03:18:15;;;;;;;14.48;4.68;;;;;;;18.13;93.94;100102.75;5023209;28;20386;-77
2022/06/12 03:21:02;;;;;;;9.20;5.47;;;;;;;18.49;94.71;100166.06;5016444;28;20044;-77
2022/06/12 03:23:56;;;;;;;12.73;6.15;;;;;;;18.37;93.13;100121.38;5019967;28;20064;-76
2022/06/12 03:26:41;;;;;;;;;;;;;;;18.45;92.57;100160.91;5021870;28;20112;-77
2022/06/12 03:29:18;;;;;;;10.70;5.15;;;;;;;18.35;93.36;100166.59;5021294;28;19956;-76
2022/06/12 03:31:58;;;;;;;9.95;5.95;;;;;;;18.59;93.61;100160.41;5020374;28;20540;-77
2022/06/12 03:34:42;;;;;;;8.80;5.10;;;;;;;18.20;94.07;100129.94;5031316;28;20057;-76
2022/06/12 03:37:20;;;;;;;7.97;4.85;;;;;;;18.45;93.86;100147.63;5020683;28;20049;-79
2022/06/12 03:40:12;;;;;;;9.23;6.22;;;;;;;18.12;95.06;100087.75;5021273;28;20046;-79
2022/06/12 03:42:57;;;;;;;6.00;3.95;;;;;;;18.61;94.65;100150.59;5021669;28;20053;-77
2022/06/12 03:45:31;;;;;;;10.10;4.53;;;;;;;18.09;93.55;100063.94;5019338;28;20136;-76
2022/06/12 03:48:08;;;;;;;11.13;5.13;;;;;;;18.11;95.41;100087.78;5015499;28;20131;-77
2022/06/12 03:50:43;;;;;;;9.57;4.55;;;;;;;18.18;95.46;100070.72;5012592;28;20048;-76
2022/06/12 03:53:24;;;;;;;9.43;4.60;;;;;;;18.70;96.11;100155.56;5029217;28;20029;-77
2022/06/12 03:58:51;;;;;;;10.70;6.33;;;;;;;18.27;94.93;100083.66;5005112;28;20052;-79
2022/06/12 04:01:18;;;;;;;9.77;4.40;;;;;;;18.94;95.15;100161.78;5023947;28;20076;-77
2022/06/12 04:03:46;;;;;;;10.65;5.10;;;;;;;18.95;93.64;100150.22;5027086;28;20072;-76
2022/06/12 04:06:15;;;;;;;7.18;5.20;;;;;;;18.63;93.27;100111.56;5020108;28;20714;-77
2022/06/12 04:08:50;;;;;;;8.38;4.90;;;;;;;18.48;93.88;100086.44;5033301;28;20557;-76
2022/06/12 04:11:19;;;;;;;9.50;4.63;;;;;;;18.61;92.21;100077.06;5030015;28;20052;-79
2022/06/12 04:13:50;;;;;;;7.03;4.57;;;;;;;18.69;92.32;100079.44;5028628;28;20061;-79
2022/06/12 04:16:42;;;;;;;9.98;5.43;;;;;;;19.04;91.67;100154.34;5005504;28;21624;-77
2022/06/12 04:19:17;;;;;;;12.73;5.35;;;;;;;18.69;90.81;100079.44;5025443;28;20052;-76
2022/06/12 04:21:56;;;;;;;24.58;5.07;;;;;;;18.62;91.40;100073.47;5019180;28;20053;-77
2022/06/12 04:24:28;;;;;;;14.25;4.53;;;;;;;18.78;89.91;100084.44;5037482;28;20042;-77
2022/06/12 04:27:05;;;;;;;7.10;4.40;;;;;;;18.76;90.21;100075.59;5025785;28;20041;-76
2022/06/12 04:29:34;;;;;;;11.55;5.35;;;;;;;19.27;89.76;100138.31;5024284;28;20049;-76
2022/06/12 04:32:06;;;;;;;6.88;4.05;;;;;;;18.83;91.44;100087.75;5026545;28;20021;-76
2022/06/12 04:34:35;;;;;;;8.05;5.07;;;;;;;19.24;90.25;100151.72;5004590;28;20053;-77
2022/06/12 04:37:10;;;;;;;6.75;4.85;;;;;;;18.80;89.84;100074.59;5022066;28;20080;-77
2022/06/12 04:39:36;;;;;;;14.15;5.00;;;;;;;18.92;91.71;100099.84;4998547;28;20064;-79
2022/06/12 04:42:03;;;;;;;7.88;4.13;;;;;;;19.35;91.06;100149.50;5004594;28;20041;-77
2022/06/12 04:44:29;;;;;;;10.90;6.70;;;;;;;19.15;89.30;100112.19;5005502;28;20086;-76
2022/06/12 04:46:58;;;;;;;17.00;5.90;;;;;;;18.96;89.81;100075.72;5027366;28;20041;-77
2022/06/12 04:49:27;;;;;;;7.45;5.10;;;;;;;18.83;88.93;100060.31;5004921;28;20092;-80
2022/06/12 04:51:55;;;;;;;11.15;5.18;;;;;;;19.19;89.41;100095.19;5028413;28;20060;-76
2022/06/12 04:54:22;;;;;;;7.15;5.32;;;;;;;19.22;88.91;100091.53;5006938;28;20520;-76
2022/06/12 04:56:48;;;;;;;12.45;5.38;;;;;;;19.25;88.91;100076.31;5025507;28;20049;-77
2022/06/12 04:59:18;;;;;;;9.48;5.30;;;;;;;19.40;87.19;100086.31;5008836;28;20172;-76
2022/06/12 05:01:45;;;;;;;6.22;5.03;;;;;;;19.35;89.23;100090.09;5027667;28;20048;-76
2022/06/12 05:04:12;;;;;;;11.52;6.00;;;;;;;19.84;90.08;100159.09;5024907;28;20223;-77
2022/06/12 05:06:40;;;;;;;5.65;4.15;;;;;;;19.58;89.26;100115.78;5004974;28;20053;-77
2022/06/12 05:09:07;;;;;;;9.23;5.88;;;;;;;19.31;88.51;100070.72;5029968;28;20073;-76
2022/06/12 05:11:33;;;;;;;7.68;4.47;;;;;;;19.67;88.65;100107.41;5024964;28;20041;-77
2022/06/12 05:13:59;;;;;;;10.00;5.95;;;;;;;20.07;86.77;100171.44;5027915;28;20052;-77
2022/06/12 05:16:37;;;;;;;6.07;4.72;;;;;;;20.07;86.64;100169.63;5006250;28;20052;-79
2022/06/12 05:19:05;;;;;;;14.70;5.80;;;;;;;20.06;86.56;100175.00;5025586;28;20092;-78
2022/06/12 05:21:33;;;;;;;10.82;4.90;;;;;;;20.05;86.87;100165.31;5025863;28;20107;-77
2022/06/12 05:24:00;;;;;;;9.40;7.05;;;;;;;19.68;84.83;100102.94;5020418;28;20075;-78
2022/06/12 05:26:26;;;;;;;6.57;4.32;;;;;;;19.84;84.71;100113.84;5022741;28;20092;-77
2022/06/12 05:28:54;;;;;;;7.65;4.88;;;;;;;20.03;86.22;100125.41;5024905;28;21094;-76
2022/06/12 05:31:20;;;;;;;7.28;4.80;;;;;;;20.29;85.32;100164.22;5021142;28;20096;-80
2022/06/12 05:33:46;;;;;;;10.30;4.40;;;;;;;20.30;83.92;100160.63;5022474;28;20045;-78
2022/06/12 05:36:16;;;;;;;7.65;4.97;;;;;;;19.80;85.46;100116.59;5036511;28;20057;-77
2022/06/12 05:38:44;;;;;;;12.82;4.57;;;;;;;19.97;85.06;100101.69;5025654;28;20060;-77
2022/06/12 05:41:11;;;;;;;6.57;4.78;;;;;;;20.38;83.15;100174.47;5006062;28;20401;-78
2022/06/12 05:43:40;;;;;;;7.90;5.47;;;;;;;20.51;83.49;100173.91;5004122;28;20108;-77
2022/06/12 05:46:10;;;;;;;11.63;4.80;;;;;;;20.45;83.44;100169.72;5025196;28;20046;-77
2022/06/12 05:48:38;;;;;;;10.70;5.43;;;;;;;20.53;82.95;100166.72;5023367;28;20053;-78
2022/06/12 05:51:04;;;;;;;7.72;4.72;;;;;;;20.31;83.79;100108.19;5021539;28;20045;-80
2022/06/12 05:53:32;;;;;;;15.73;6.80;;;;;;;20.52;81.73;100119.69;5022241;28;20041;-80
2022/06/12 05:56:00;;;;;;;12.93;4.75;;;;;;;20.50;82.36;100102.91;5022951;28;20037;-76
2022/06/12 05:58:28;;;;;;;15.75;6.30;;;;;;;20.63;80.05;100126.28;5027209;28;20077;-79
2022/06/12 06:00:57;;;;;;;11.95;5.57;;;;;;;21.10;81.74;100194.34;5023992;28;20052;-76
2022/06/12 06:03:24;;;;;;;6.97;4.60;;;;;;;20.72;81.72;100113.44;5023181;28;20041;-76
2022/06/12 06:05:50;;;;;;;9.52;4.80;;;;;;;20.70;81.51;100124.19;5011758;28;20152;-76
2022/06/12 06:08:18;;;;;;;6.38;4.75;;;;;;;20.72;81.18;100114.34;5005853;28;20037;-76
2022/06/12 06:10:45;;;;;;;12.15;7.47;;;;;;;20.72;81.99;100122.34;5022645;28;20056;-79
2022/06/12 06:13:11;;;;;;;6.43;4.63;;;;;;;20.56;81.70;100103.50;5026984;28;21121;-76
2022/06/12 06:15:37;;;;;;;9.20;6.40;;;;;;;20.74;81.89;100122.25;5002721;28;20088;-76
2022/06/12 06:18:05;;;;;;;13.43;7.30;;;;;;;20.57;81.01;100099.03;4988039;28;20253;-77
2022/06/12 06:20:34;;;;;;;11.30;5.38;;;;;;;20.81;81.53;100126.34;5023839;28;20549;-80
2022/06/12 06:23:00;;;;;;;6.95;5.05;;;;;;;21.11;83.18;100161.38;5020178;28;20029;-80
2022/06/12 06:25:28;;;;;;;6.22;4.55;;;;;;;21.19;80.43;100180.56;5002583;28;20056;-78
2022/06/12 06:27:54;;;;;;;10.05;5.47;;;;;;;21.13;80.52;100147.97;5022656;28;20061;-79
2022/06/12 06:30:22;;;;;;;8.68;4.82;;;;;;;21.38;79.41;100179.69;5021444;28;20049;-79
2022/06/12 06:32:47;;;;;;;10.18;4.85;;;;;;;21.08;79.72;100119.69;5038348;28;20073;-78
2022/06/12 06:35:15;;;;;;;12.23;6.07;;;;;;;21.14;78.99;100120.34;5004789;28;20072;-81
2022/06/12 06:37:41;;;;;;;11.20;6.65;;;;;;;21.62;78.97;100181.19;5002067;28;20339;-76
2022/06/12 06:40:10;;;;;;;13.63;6.25;;;;;;;21.31;79.24;100136.41;5021873;28;20046;-76
2022/06/12 06:42:35;;;;;;;18.20;8.20;;;;;;;21.75;78.61;100188.56;5005835;28;20395;-79
2022/06/12 06:47:46;;;;;;;20.98;6.32;;;;;;;22.07;77.77;100185.13;5007111;28;20048;-79
2022/06/12 06:50:15;;;;;;;11.23;6.93;;;;;;;22.24;77.65;100197.69;5023826;28;20029;-76
2022/06/12 06:52:40;;;;;;;9.48;5.30;;;;;;;21.90;77.46;100126.38;5020871;28;20689;-77
2022/06/12 06:55:08;;;;;;;16.27;5.72;;;;;;;22.38;76.54;100185.38;5004320;28;20053;-77
2022/06/12 06:57:39;;;;;;;10.07;6.28;;;;;;;22.06;78.67;100123.78;5021657;28;20128;-79
2022/06/12 07:00:06;;;;;;;7.28;5.18;;;;;;;22.55;76.89;100193.41;5018596;28;20477;-79
2022/06/12 07:02:32;;;;;;;14.85;8.75;;;;;;;22.58;75.38;100181.66;5020110;28;20033;-79
2022/06/12 07:04:58;;;;;;;12.32;6.07;;;;;;;22.59;75.29;100186.91;5017406;28;20117;-79
2022/06/12 07:07:23;;;;;;;6.90;5.15;;;;;;;22.61;75.16;100168.97;5018688;28;20049;-76
2022/06/12 07:09:49;;;;;;;13.27;8.02;;;;;;;22.88;74.24;100192.53;5022258;28;20053;-76
2022/06/12 07:12:15;;;;;;;17.02;7.22;;;;;;;22.51;75.36;100122.28;5014982;28;20045;-77
2022/06/12 07:14:41;;;;;;;11.68;8.80;;;;;;;22.58;71.23;100139.72;5001493;28;20029;-76
2022/06/12 07:17:08;;;;;;;8.10;4.18;;;;;;;22.99;71.81;100211.53;5023457;28;20033;-78
2022/06/12 07:19:34;;;;;;;12.07;6.22;;;;;;;22.51;72.93;100133.84;5026208;28;20045;-77
2022/06/12 07:22:00;;;;;;;14.40;7.55;;;;;;;22.72;71.00;100129.13;5021615;28;20037;-79
2022/06/12 07:24:28;;;;;;;6.72;4.25;;;;;;;22.58;72.10;100154.94;5022317;28;20072;-77
2022/06/12 07:26:53;;;;;;;6.28;4.13;;;;;;;22.74;70.21;100132.59;5000328;28;20060;-77
2022/06/12 07:29:21;;;;;;;8.68;5.70;;;;;;;23.04;70.59;100192.56;5010764;28;20050;-77
2022/06/12 07:31:47;;;;;;;8.85;6.13;;;;;;;22.92;70.07;100140.53;5017504;28;20115;-78
2022/06/12 07:34:13;;;;;;;14.55;7.35;;;;;;;23.33;70.45;100189.13;4988649;28;20054;-78
2022/06/12 07:36:41;;;;;;;10.82;5.82;;;;;;;23.50;69.56;100206.91;5001431;28;20048;-77
2022/06/12 07:39:10;;;;;;;13.27;8.48;;;;;;;23.44;71.52;100203.72;5018572;28;20050;-79
2022/06/12 07:41:36;;;;;;;11.15;4.93;;;;;;;23.00;69.93;100132.13;5021140;28;20032;-77
2022/06/12 07:44:03;;;;;;;6.13;4.30;;;;;;;22.92;69.13;100146.78;5022697;28;20036;-76
2022/06/12 07:46:29;;;;;;;11.05;4.85;;;;;;;22.97;69.13;100128.66;5022773;28;20041;-79
2022/06/12 07:48:55;;;;;;;13.90;6.93;;;;;;;22.96;69.39;100150.13;5027157;28;20073;-83
2022/06/12 07:51:24;;;;;;;6.75;4.38;;;;;;;23.00;68.49;100141.03;5022243;28;20049;-81
2022/06/12 07:53:54;;;;;;;5.22;3.95;;;;;;;23.11;68.76;100143.13;5025899;28;20046;-79
2022/06/12 07:56:25;;;;;;;8.00;5.63;;;;;;;23.84;68.05;100230.94;4999725;28;20049;-80
2022/06/12 07:58:53;;;;;;;7.47;4.43;;;;;;;23.28;67.63;100153.72;4998264;28;20065;-80
2022/06/12 08:01:22;;;;;;;10.98;4.63;;;;;;;22.98;69.32;100148.25;5017780;28;20056;-80
2022/06/12 08:03:49;;;;;;;11.45;6.18;;;;;;;23.00;69.25;100197.22;5014250;28;20140;-83
2022/06/12 08:06:20;;;;;;;11.88;6.47;;;;;;;23.27;68.83;100200.19;5041385;28;20106;-80
2022/06/12 08:08:52;;;;;;;6.82;5.00;;;;;;;22.98;69.54;100166.97;5027416;28;20376;-82
2022/06/12 08:11:26;;;;;;;9.82;5.55;;;;;;;23.08;69.53;100220.88;5036135;28;20033;-80
2022/06/12 08:13:52;;;;;;;9.65;4.13;;;;;;;23.02;68.49;100159.69;5007705;28;20053;-79
2022/06/12 08:16:20;;;;;;;13.45;7.13;;;;;;;22.99;67.72;100133.94;5011992;28;20916;-86
2022/06/12 08:18:46;;;;;;;15.02;6.85;;;;;;;23.44;69.14;100217.97;5016246;28;20543;-85
2022/06/12 08:21:15;;;;;;;10.05;5.68;;;;;;;23.48;70.86;100215.97;5037948;28;20045;-83
2022/06/12 08:23:57;;;;;;;11.95;4.70;;;;;;;22.83;69.85;100159.78;5016146;28;20137;-81
2022/06/12 08:26:31;;;;;;;8.70;4.72;;;;;;;23.43;68.96;100212.69;5037983;28;20060;-83
2022/06/12 08:29:06;;;;;;;9.45;6.10;;;;;;;23.44;68.42;100171.59;5037015;28;20123;-83
2022/06/12 08:31:39;;;;;;;6.20;4.45;;;;;;;23.75;67.90;100219.78;5023613;28;20055;-84
2022/06/12 08:34:10;;;;;;;6.43;4.80;;;;;;;23.69;68.13;100209.38;5035841;28;20118;-81
2022/06/12 08:36:36;;;;;;;17.70;9.35;;;;;;;23.88;67.69;100208.34;5034610;28;20080;-83
2022/06/12 08:39:05;;;;;;;17.98;5.88;;;;;;;23.76;69.18;100229.56;5034585;28;20049;-82
2022/06/12 08:41:36;;;;;;;10.38;5.45;;;;;;;23.98;69.47;100221.13;5017377;28;20017;-83
2022/06/12 08:44:07;;;;;;;10.90;4.45;;;;;;;23.52;69.76;100162.16;5031030;28;20756;-83
2022/06/12 08:46:36;;;;;;;10.73;5.70;;;;;;;24.07;69.22;100221.53;5022709;28;20406;-84
2022/06/12 08:49:44;;;;;;;7.28;4.05;;;;;;;23.58;67.71;100161.81;5035071;28;20049;-83
2022/06/12 08:52:30;;;;;;;14.77;5.75;;;;;;;23.90;67.80;100150.16;5008896;28;20041;-82
2022/06/12 08:55:25;;;;;;;12.80;7.18;;;;;;;23.70;68.14;100178.97;5020213;28;21783;-83
2022/06/12 08:58:01;;;;;;;13.15;7.47;;;;;;;24.07;67.59;100227.78;5038158;28;20049;-83
2022/06/12 09:00:37;;;;;;;11.40;7.05;;;;;;;23.98;68.03;100220.28;5034084;28;20109;-82
2022/06/12 09:03:05;;;;;;;6.65;4.05;;;;;;;23.63;68.10;100158.00;5033969;28;20841;-82
2022/06/12 09:05:51;;;;;;;11.80;7.25;;;;;;;24.00;66.16;100154.03;5035547;28;20513;-83
2022/06/12 09:08:30;;;;;;;12.63;6.18;;;;;;;24.62;65.39;100220.91;5039771;28;20041;-84
2022/06/12 09:11:03;;;;;;;7.80;5.20;;;;;;;24.64;64.90;100232.41;5035527;28;20105;-84
2022/06/12 09:13:55;;;;;;;9.32;5.43;;;;;;;24.03;66.44;100143.13;5036166;28;20573;-82
2022/06/12 09:16:43;;;;;;;7.28;5.15;;;;;;;24.53;66.46;100208.91;5016880;28;20052;-84
2022/06/12 09:19:57;;;;;;;15.55;8.85;;;;;;;24.55;65.58;100224.94;5019810;28;20107;-84
2022/06/12 09:22:50;;;;;;;16.45;8.02;;;;;;;24.55;66.47;100219.56;5004475;28;20042;-84
2022/06/12 09:25:29;;;;;;;9.25;6.65;;;;;;;24.56;65.39;100156.91;5006213;28;20177;-80
2022/06/12 09:28:26;;;;;;;10.57;7.32;;;;;;;24.72;66.21;100211.31;5018482;28;20501;-80
2022/06/12 09:31:05;;;;;;;12.60;8.20;;;;;;;25.09;66.03;100208.16;5004905;28;20099;-80
2022/06/12 09:33:43;;;;;;;10.07;7.43;;;;;;;25.44;63.38;100211.28;5003478;28;20125;-80
2022/06/12 09:36:51;;;;;;;10.10;8.00;;;;;;;25.52;63.79;100203.59;5000366;28;20052;-80
2022/06/12 09:39:37;;;;;;;11.52;7.07;;;;;;;26.23;63.44;100198.88;4962404;28;20057;-81
2022/06/12 09:42:21;;;;;;;18.42;10.48;;;;;;;25.76;61.54;100139.28;5006746;28;20053;-81
2022/06/12 09:44:59;;;;;;;10.38;7.82;;;;;;;25.99;61.68;100137.75;4990220;28;20049;-81
2022/06/12 09:47:42;;;;;;;17.40;10.00;;;;;;;26.35;60.49;100155.00;4990196;28;20045;-81
2022/06/12 09:50:19;;;;;;;18.08;11.70;;;;;;;27.03;61.21;100196.84;4997021;28;20056;-79
2022/06/12 09:53:07;;;;;;;20.48;11.77;;;;;;;26.83;57.12;100119.31;4994905;28;20046;-80
2022/06/12 09:55:39;;;;;;;8.38;5.63;;;;;;;27.27;55.61;100174.50;4997741;28;20065;-80
2022/06/12 09:58:29;;;;;;;10.43;5.78;;;;;;;27.78;54.72;100180.53;4998042;28;20113;-83
2022/06/12 10:01:04;;;;;;;17.02;5.78;;;;;;;27.61;53.45;100172.00;4999063;28;20056;-83
2022/06/12 10:03:49;;;;;;;13.55;6.45;;;;;;;27.61;53.79;100167.47;5000527;28;20816;-82
2022/06/12 10:06:24;;;;;;;5.95;3.92;;;;;;;27.69;53.71;100166.88;4997904;28;20062;-82
2022/06/12 10:09:08;;;;;;;11.48;5.95;;;;;;;28.39;52.03;100155.22;4996719;28;20070;-85
2022/06/12 10:11:55;;;;;;;8.50;4.28;;;;;;;27.42;52.26;100178.78;4984220;28;20042;-82
2022/06/12 10:14:43;;;;;;;12.60;6.30;;;;;;;27.59;52.05;100166.72;5006002;28;20042;-83
2022/06/12 10:17:25;;;;;;;12.65;5.82;;;;;;;28.61;49.96;100162.50;4998301;28;20048;-81
2022/06/12 10:20:01;;;;;;;10.20;6.40;;;;;;;27.31;51.17;100098.72;5000621;28;20058;-79
2022/06/12 10:22:33;;;;;;;9.45;4.90;;;;;;;27.07;51.75;100149.88;4990079;28;20045;-77
2022/06/12 10:25:00;;;;;;;8.65;4.72;;;;;;;27.35;51.06;100146.03;5000775;28;20052;-79
2022/06/12 10:27:40;;;;;;;19.70;9.35;;;;;;;27.10;50.20;100086.81;5001458;28;20497;-78
2022/06/12 10:30:07;;;;;;;16.38;9.82;;;;;;;28.12;49.65;100129.44;4996616;28;20529;-79
2022/06/12 10:32:52;;;;;;;13.93;8.55;;;;;;;29.15;49.15;100121.25;5004636;28;20033;-78
2022/06/12 10:35:24;;;;;;;18.20;9.32;;;;;;;27.82;48.57;100072.44;5002564;28;20076;-79
2022/06/12 10:37:51;;;;;;;19.10;10.95;;;;;;;28.03;49.05;100053.75;5020744;28;20188;-78
2022/06/12 10:40:23;;;;;;;20.45;11.88;;;;;;;29.09;48.39;100072.25;5023099;28;20061;-77
2022/06/12 10:43:01;;;;;;;5.82;3.55;;;;;;;29.10;46.70;100118.03;5001179;28;20057;-77
2022/06/12 10:45:34;;;;;;;36.92;18.35;;;;;;;28.92;46.55;100116.84;5021712;28;20057;-80
2022/06/12 10:48:21;;;;;;;22.08;10.82;;;;;;;28.86;46.66;100123.59;5020719;28;20491;-81
2022/06/12 10:51:00;;;;;;;18.17;8.32;;;;;;;27.75;48.84;100113.38;5002043;28;20107;-84
2022/06/12 10:53:29;;;;;;;11.10;5.55;;;;;;;27.56;50.65;100113.06;5020154;28;20029;-83
2022/06/12 10:56:16;;;;;;;11.50;6.05;;;;;;;28.03;49.08;100123.91;5022548;28;20021;-84
2022/06/12 10:59:09;;;;;;;7.55;3.75;;;;;;;26.84;51.00;100056.44;5021774;28;20544;-85
2022/06/12 11:02:04;;;;;;;9.93;4.03;;;;;;;27.10;50.81;100113.75;5021805;28;20046;-82
2022/06/12 11:05:07;;;;;;;14.05;6.10;;;;;;;27.55;49.23;100069.03;5005916;28;20054;-84
2022/06/12 11:07:57;;;;;;;10.23;6.05;;;;;;;27.46;50.76;100106.63;5011830;28;20045;-83
2022/06/12 11:10:43;;;;;;;4.72;3.05;;;;;;;27.08;50.65;100115.69;5020036;28;20052;-81
2022/06/12 11:13:32;;;;;;;14.93;5.70;;;;;;;26.86;50.65;100084.97;5003337;28;20057;-87
2022/06/12 11:16:26;;;;;;;11.18;4.93;;;;;;;27.14;50.05;100101.78;5019120;28;20077;-85
2022/06/12 11:19:38;;;;;;;25.25;12.82;;;;;;;28.51;47.07;100107.53;4982241;28;20089;-79
2022/06/12 11:22:39;;;;;;;34.90;15.35;;;;;;;28.79;46.12;100107.03;5021068;28;20372;-79
2022/06/12 11:25:24;;;;;;;20.88;9.20;;;;;;;28.89;45.66;100100.88;4924801;28;20105;-79
2022/06/12 11:28:26;;;;;;;22.98;13.48;;;;;;;28.02;46.31;100030.44;4941222;28;20055;-79
2022/06/12 11:31:12;;;;;;;11.77;6.95;;;;;;;28.01;47.65;100094.34;5018792;28;20879;-77
2022/06/12 11:33:56;;;;;;;8.18;4.10;;;;;;;26.89;49.24;100040.78;4994698;28;20154;-78
2022/06/12 11:36:48;;;;;;;28.50;11.95;;;;;;;27.36;48.45;100083.06;5011989;28;20041;-77
2022/06/12 11:39:22;;;;;;;19.63;10.90;;;;;;;27.94;47.31;100077.78;5000145;28;20496;-79
2022/06/12 11:42:15;;;;;;;43.17;16.35;;;;;;;27.99;46.62;100024.31;4992304;28;20167;-80
2022/06/12 11:45:06;;;;;;;74.95;27.27;;;;;;;27.72;47.06;100029.13;5006571;28;20053;-79
2022/06/12 11:48:00;;;;;;;56.50;21.45;;;;;;;28.28;46.83;100076.94;5003285;28;20033;-80
2022/06/12 11:51:03;;;;;;;45.88;19.33;;;;;;;28.13;46.58;100019.66;5017769;28;20060;-80
2022/06/12 11:53:31;;;;;;;18.88;7.53;;;;;;;28.21;47.48;100033.41;5011421;28;20038;-77
2022/06/12 11:56:34;;;;;;;15.20;8.80;;;;;;;27.37;48.84;100008.50;5016647;28;20068;-79
2022/06/12 11:59:23;;;;;;;12.98;6.18;;;;;;;27.39;50.34;100073.03;5016726;28;20057;-78
2022/06/12 12:02:04;;;;;;;13.07;6.10;;;;;;;27.32;50.34;100075.31;5017058;28;20049;-79
2022/06/12 12:05:04;;;;;;;13.82;7.28;;;;;;;27.43;50.58;100078.06;5014599;28;20077;-80
2022/06/12 12:08:17;;;;;;;32.22;13.52;;;;;;;27.43;50.31;100026.88;5015815;28;20060;-80
2022/06/12 12:11:14;;;;;;;31.70;14.07;;;;;;;27.52;50.26;100055.81;4974212;28;20041;-82